sensor_id;sensor_type;location;lat;lon;timestamp;P1;durP1;ratioP1;P2;durP2;ratioP2
21251;SDS011;10784;50.578;17.878;2022-09-28T00:00:16;2.20;;;1.58;;
21251;SDS011;10784;50.578;17.878;2022-09-28T00:03:10;2.55;;;1.58;;
21251;SDS011;10784;50.578;17.878;2022-09-28T00:05:44;2.88;;;1.50;;
21251;SDS011;10784;50.578;17.878;2022-09-28T00:08:17;2.25;;;1.42;;
21251;SDS011;10784;50.578;17.878;2022-09-28T00:10:55;3.10;;;1.83;;
21251;SDS011;10784;50.578;17.878;2022-09-28T00:13:28;3.55;;;1.60;;
21251;SDS011;10784;50.578;17.878;2022-09-28T00:16:06;2.15;;;1.50;;
21251;SDS011;10784;50.578;17.878;2022-09-28T00:18:40;3.85;;;1.58;;
21251;SDS011;10784;50.578;17.878;2022-09-28T00:21:14;2.33;;;1.40;;
21251;SDS011;10784;50.578;17.878;2022-09-28T00:23:51;2.90;;;1.65;;
21251;SDS011;10784;50.578;17.878;2022-09-28T00:26:53;2.10;;;1.80;;
21251;SDS011;10784;50.578;17.878;2022-09-28T00:32:00;2.97;;;1.90;;
21251;SDS011;10784;50.578;17.878;2022-09-28T00:34:35;2.40;;;1.85;;
21251;SDS011;10784;50.578;17.878;2022-09-28T00:37:08;2.80;;;1.63;;
21251;SDS011;10784;50.578;17.878;2022-09-28T00:39:41;6.30;;;2.42;;
21251;SDS011;10784;50.578;17.878;2022-09-28T00:42:21;2.10;;;1.50;;
21251;SDS011;10784;50.578;17.878;2022-09-28T00:44:58;3.72;;;1.95;;
21251;SDS011;10784;50.578;17.878;2022-09-28T00:50:29;2.10;;;1.35;;
21251;SDS011;10784;50.578;17.878;2022-09-28T00:55:43;2.65;;;1.50;;
21251;SDS011;10784;50.578;17.878;2022-09-28T00:58:18;2.40;;;1.55;;
21251;SDS011;10784;50.578;17.878;2022-09-28T01:00:56;3.42;;;1.73;;
21251;SDS011;10784;50.578;17.878;2022-09-28T01:03:29;2.93;;;1.30;;
21251;SDS011;10784;50.578;17.878;2022-09-28T01:06:04;4.70;;;1.80;;
21251;SDS011;10784;50.578;17.878;2022-09-28T01:08:38;3.05;;;1.80;;
21251;SDS011;10784;50.578;17.878;2022-09-28T01:11:11;3.00;;;1.67;;
21251;SDS011;10784;50.578;17.878;2022-09-28T01:13:44;2.40;;;1.55;;
21251;SDS011;10784;50.578;17.878;2022-09-28T01:16:19;3.05;;;1.88;;
21251;SDS011;10784;50.578;17.878;2022-09-28T01:19:16;2.63;;;1.48;;
21251;SDS011;10784;50.578;17.878;2022-09-28T01:22:13;4.38;;;1.80;;
21251;SDS011;10784;50.578;17.878;2022-09-28T01:30:15;2.17;;;1.60;;
21251;SDS011;10784;50.578;17.878;2022-09-28T01:32:57;4.20;;;1.50;;
21251;SDS011;10784;50.578;17.878;2022-09-28T01:35:35;2.63;;;1.60;;
21251;SDS011;10784;50.578;17.878;2022-09-28T01:38:28;3.20;;;1.70;;
21251;SDS011;10784;50.578;17.878;2022-09-28T01:41:02;3.78;;;1.50;;
21251;SDS011;10784;50.578;17.878;2022-09-28T01:43:38;2.80;;;1.20;;
21251;SDS011;10784;50.578;17.878;2022-09-28T01:46:23;2.58;;;1.38;;
21251;SDS011;10784;50.578;17.878;2022-09-28T01:49:09;2.00;;;1.40;;
21251;SDS011;10784;50.578;17.878;2022-09-28T01:51:50;5.22;;;1.70;;
21251;SDS011;10784;50.578;17.878;2022-09-28T01:54:43;1.50;;;1.38;;
21251;SDS011;10784;50.578;17.878;2022-09-28T01:57:28;3.05;;;1.77;;
21251;SDS011;10784;50.578;17.878;2022-09-28T02:00:05;2.30;;;1.48;;
21251;SDS011;10784;50.578;17.878;2022-09-28T02:03:01;2.17;;;1.67;;
21251;SDS011;10784;50.578;17.878;2022-09-28T02:05:48;4.55;;;1.60;;
21251;SDS011;10784;50.578;17.878;2022-09-28T02:11:30;2.72;;;1.70;;
21251;SDS011;10784;50.578;17.878;2022-09-28T02:14:06;2.25;;;1.67;;
21251;SDS011;10784;50.578;17.878;2022-09-28T02:16:42;3.90;;;1.90;;
21251;SDS011;10784;50.578;17.878;2022-09-28T02:19:19;4.72;;;2.25;;
21251;SDS011;10784;50.578;17.878;2022-09-28T02:24:45;3.38;;;2.50;;
21251;SDS011;10784;50.578;17.878;2022-09-28T02:27:33;2.58;;;2.20;;
21251;SDS011;10784;50.578;17.878;2022-09-28T02:30:07;2.05;;;1.58;;
21251;SDS011;10784;50.578;17.878;2022-09-28T02:32:41;2.40;;;1.67;;
21251;SDS011;10784;50.578;17.878;2022-09-28T02:35:16;6.00;;;2.00;;
21251;SDS011;10784;50.578;17.878;2022-09-28T02:37:49;3.00;;;1.92;;
21251;SDS011;10784;50.578;17.878;2022-09-28T02:40:23;3.63;;;2.10;;
21251;SDS011;10784;50.578;17.878;2022-09-28T02:43:18;2.22;;;1.55;;
21251;SDS011;10784;50.578;17.878;2022-09-28T02:57:28;3.28;;;2.00;;
21251;SDS011;10784;50.578;17.878;2022-09-28T03:05:31;3.65;;;2.20;;
21251;SDS011;10784;50.578;17.878;2022-09-28T03:11:36;2.85;;;1.95;;
21251;SDS011;10784;50.578;17.878;2022-09-28T03:13:51;4.93;;;2.30;;
21251;SDS011;10784;50.578;17.878;2022-09-28T03:16:30;2.88;;;1.90;;
21251;SDS011;10784;50.578;17.878;2022-09-28T03:19:03;1.52;;;1.40;;
21251;SDS011;10784;50.578;17.878;2022-09-28T03:21:36;2.65;;;1.88;;
21251;SDS011;10784;50.578;17.878;2022-09-28T03:24:09;3.08;;;1.70;;
21251;SDS011;10784;50.578;17.878;2022-09-28T03:26:42;2.33;;;1.58;;
21251;SDS011;10784;50.578;17.878;2022-09-28T03:29:16;4.10;;;1.80;;
21251;SDS011;10784;50.578;17.878;2022-09-28T03:31:57;3.60;;;1.60;;
21251;SDS011;10784;50.578;17.878;2022-09-28T03:34:29;3.15;;;2.03;;
21251;SDS011;10784;50.578;17.878;2022-09-28T03:37:02;3.23;;;2.20;;
21251;SDS011;10784;50.578;17.878;2022-09-28T03:39:35;3.53;;;2.72;;
21251;SDS011;10784;50.578;17.878;2022-09-28T03:42:08;4.68;;;3.20;;
21251;SDS011;10784;50.578;17.878;2022-09-28T03:44:45;5.77;;;2.70;;
21251;SDS011;10784;50.578;17.878;2022-09-28T03:47:19;2.47;;;1.90;;
21251;SDS011;10784;50.578;17.878;2022-09-28T03:49:52;3.25;;;2.17;;
21251;SDS011;10784;50.578;17.878;2022-09-28T03:52:25;3.78;;;2.30;;
21251;SDS011;10784;50.578;17.878;2022-09-28T03:54:58;6.10;;;2.30;;
21251;SDS011;10784;50.578;17.878;2022-09-28T03:57:31;3.80;;;2.23;;
21251;SDS011;10784;50.578;17.878;2022-09-28T04:00:04;6.40;;;3.17;;
21251;SDS011;10784;50.578;17.878;2022-09-28T04:02:44;11.45;;;4.93;;
21251;SDS011;10784;50.578;17.878;2022-09-28T04:05:17;6.72;;;3.72;;
21251;SDS011;10784;50.578;17.878;2022-09-28T04:07:50;10.23;;;5.35;;
21251;SDS011;10784;50.578;17.878;2022-09-28T04:10:23;13.73;;;5.87;;
21251;SDS011;10784;50.578;17.878;2022-09-28T04:12:57;16.50;;;7.95;;
21251;SDS011;10784;50.578;17.878;2022-09-28T04:15:30;16.25;;;8.38;;
21251;SDS011;10784;50.578;17.878;2022-09-28T04:18:04;14.88;;;8.10;;
21251;SDS011;10784;50.578;17.878;2022-09-28T04:21:04;8.45;;;4.47;;
21251;SDS011;10784;50.578;17.878;2022-09-28T04:24:02;4.37;;;2.73;;
21251;SDS011;10784;50.578;17.878;2022-09-28T04:26:35;4.45;;;2.80;;
21251;SDS011;10784;50.578;17.878;2022-09-28T04:29:09;4.93;;;3.00;;
21251;SDS011;10784;50.578;17.878;2022-09-28T04:31:53;3.40;;;2.30;;
21251;SDS011;10784;50.578;17.878;2022-09-28T04:34:36;2.60;;;1.90;;
21251;SDS011;10784;50.578;17.878;2022-09-28T04:37:15;3.03;;;1.75;;
21251;SDS011;10784;50.578;17.878;2022-09-28T04:39:48;2.47;;;1.90;;
21251;SDS011;10784;50.578;17.878;2022-09-28T04:42:23;11.27;;;2.70;;
21251;SDS011;10784;50.578;17.878;2022-09-28T04:44:56;5.20;;;3.10;;
21251;SDS011;10784;50.578;17.878;2022-09-28T04:47:30;4.20;;;1.98;;
21251;SDS011;10784;50.578;17.878;2022-09-28T04:50:20;2.85;;;1.73;;
21251;SDS011;10784;50.578;17.878;2022-09-28T04:53:20;2.88;;;1.85;;
21251;SDS011;10784;50.578;17.878;2022-09-28T04:55:54;3.13;;;1.90;;
21251;SDS011;10784;50.578;17.878;2022-09-28T04:58:28;2.33;;;1.67;;
21251;SDS011;10784;50.578;17.878;2022-09-28T05:01:05;3.47;;;1.92;;
21251;SDS011;10784;50.578;17.878;2022-09-28T05:03:56;3.40;;;1.70;;
21251;SDS011;10784;50.578;17.878;2022-09-28T05:06:47;3.42;;;2.00;;
21251;SDS011;10784;50.578;17.878;2022-09-28T05:09:20;3.92;;;2.22;;
21251;SDS011;10784;50.578;17.878;2022-09-28T05:11:53;4.20;;;2.15;;
21251;SDS011;10784;50.578;17.878;2022-09-28T05:14:28;2.78;;;2.13;;
21251;SDS011;10784;50.578;17.878;2022-09-28T05:17:02;3.00;;;2.35;;
21251;SDS011;10784;50.578;17.878;2022-09-28T05:19:52;4.43;;;2.80;;
21251;SDS011;10784;50.578;17.878;2022-09-28T05:22:25;8.20;;;2.60;;
21251;SDS011;10784;50.578;17.878;2022-09-28T05:24:59;5.55;;;2.70;;
21251;SDS011;10784;50.578;17.878;2022-09-28T05:27:36;4.93;;;2.70;;
21251;SDS011;10784;50.578;17.878;2022-09-28T05:30:12;4.10;;;2.13;;
21251;SDS011;10784;50.578;17.878;2022-09-28T05:33:05;5.18;;;2.40;;
21251;SDS011;10784;50.578;17.878;2022-09-28T05:35:51;4.13;;;2.50;;
21251;SDS011;10784;50.578;17.878;2022-09-28T05:38:30;5.57;;;2.42;;
21251;SDS011;10784;50.578;17.878;2022-09-28T05:41:05;5.43;;;2.90;;
21251;SDS011;10784;50.578;17.878;2022-09-28T05:43:38;7.28;;;4.03;;
21251;SDS011;10784;50.578;17.878;2022-09-28T05:46:11;7.45;;;3.60;;
21251;SDS011;10784;50.578;17.878;2022-09-28T05:48:46;6.75;;;3.53;;
21251;SDS011;10784;50.578;17.878;2022-09-28T05:51:19;11.88;;;3.17;;
21251;SDS011;10784;50.578;17.878;2022-09-28T05:53:56;5.93;;;3.00;;
21251;SDS011;10784;50.578;17.878;2022-09-28T05:56:36;3.17;;;2.35;;
21251;SDS011;10784;50.578;17.878;2022-09-28T05:59:11;3.88;;;2.45;;
21251;SDS011;10784;50.578;17.878;2022-09-28T06:01:45;9.80;;;5.57;;
21251;SDS011;10784;50.578;17.878;2022-09-28T06:04:18;11.32;;;5.40;;
21251;SDS011;10784;50.578;17.878;2022-09-28T06:06:52;9.00;;;4.40;;
21251;SDS011;10784;50.578;17.878;2022-09-28T06:09:25;7.28;;;3.70;;
21251;SDS011;10784;50.578;17.878;2022-09-28T06:12:04;7.53;;;4.15;;
21251;SDS011;10784;50.578;17.878;2022-09-28T06:14:45;6.00;;;2.60;;
21251;SDS011;10784;50.578;17.878;2022-09-28T06:17:18;4.75;;;2.50;;
21251;SDS011;10784;50.578;17.878;2022-09-28T06:19:58;9.90;;;4.07;;
21251;SDS011;10784;50.578;17.878;2022-09-28T06:22:50;5.95;;;3.22;;
21251;SDS011;10784;50.578;17.878;2022-09-28T06:25:24;4.00;;;2.42;;
21251;SDS011;10784;50.578;17.878;2022-09-28T06:27:59;4.60;;;2.20;;
21251;SDS011;10784;50.578;17.878;2022-09-28T06:30:33;4.13;;;2.97;;
21251;SDS011;10784;50.578;17.878;2022-09-28T06:33:08;3.00;;;1.65;;
21251;SDS011;10784;50.578;17.878;2022-09-28T06:35:41;4.15;;;2.85;;
21251;SDS011;10784;50.578;17.878;2022-09-28T06:38:14;6.40;;;2.70;;
21251;SDS011;10784;50.578;17.878;2022-09-28T06:40:47;4.07;;;2.10;;
21251;SDS011;10784;50.578;17.878;2022-09-28T06:43:20;6.60;;;2.33;;
21251;SDS011;10784;50.578;17.878;2022-09-28T06:46:11;2.77;;;1.90;;
21251;SDS011;10784;50.578;17.878;2022-09-28T06:48:54;4.07;;;1.80;;
21251;SDS011;10784;50.578;17.878;2022-09-28T06:51:45;2.75;;;1.70;;
21251;SDS011;10784;50.578;17.878;2022-09-28T06:54:38;6.70;;;2.85;;
21251;SDS011;10784;50.578;17.878;2022-09-28T06:57:26;2.83;;;1.67;;
21251;SDS011;10784;50.578;17.878;2022-09-28T06:59:59;2.17;;;1.50;;
21251;SDS011;10784;50.578;17.878;2022-09-28T07:02:32;4.53;;;2.03;;
21251;SDS011;10784;50.578;17.878;2022-09-28T07:05:24;4.40;;;1.67;;
21251;SDS011;10784;50.578;17.878;2022-09-28T07:08:22;2.87;;;1.80;;
21251;SDS011;10784;50.578;17.878;2022-09-28T07:11:13;2.30;;;1.83;;
21251;SDS011;10784;50.578;17.878;2022-09-28T07:14:05;2.28;;;1.40;;
21251;SDS011;10784;50.578;17.878;2022-09-28T07:16:57;2.25;;;1.25;;
21251;SDS011;10784;50.578;17.878;2022-09-28T07:19:52;4.18;;;1.52;;
21251;SDS011;10784;50.578;17.878;2022-09-28T07:22:36;3.88;;;1.70;;
21251;SDS011;10784;50.578;17.878;2022-09-28T07:25:26;1.70;;;1.30;;
21251;SDS011;10784;50.578;17.878;2022-09-28T07:28:20;1.27;;;1.00;;
21251;SDS011;10784;50.578;17.878;2022-09-28T07:31:13;2.22;;;1.70;;
21251;SDS011;10784;50.578;17.878;2022-09-28T07:34:01;2.38;;;1.40;;
21251;SDS011;10784;50.578;17.878;2022-09-28T07:36:43;2.25;;;1.42;;
21251;SDS011;10784;50.578;17.878;2022-09-28T07:39:15;2.73;;;1.40;;
21251;SDS011;10784;50.578;17.878;2022-09-28T07:41:49;2.67;;;1.10;;
21251;SDS011;10784;50.578;17.878;2022-09-28T07:44:21;2.17;;;1.58;;
21251;SDS011;10784;50.578;17.878;2022-09-28T07:46:57;2.30;;;1.70;;
21251;SDS011;10784;50.578;17.878;2022-09-28T07:50:06;3.17;;;2.00;;
21251;SDS011;10784;50.578;17.878;2022-09-28T07:52:46;4.32;;;2.25;;
21251;SDS011;10784;50.578;17.878;2022-09-28T07:55:27;5.40;;;2.20;;
21251;SDS011;10784;50.578;17.878;2022-09-28T07:58:12;3.53;;;2.40;;
21251;SDS011;10784;50.578;17.878;2022-09-28T08:01:14;10.55;;;4.75;;
21251;SDS011;10784;50.578;17.878;2022-09-28T08:03:48;11.98;;;4.88;;
21251;SDS011;10784;50.578;17.878;2022-09-28T08:06:21;4.97;;;2.30;;
21251;SDS011;10784;50.578;17.878;2022-09-28T08:12:33;3.03;;;1.90;;
21251;SDS011;10784;50.578;17.878;2022-09-28T08:15:20;2.63;;;2.00;;
21251;SDS011;10784;50.578;17.878;2022-09-28T08:18:18;2.70;;;1.90;;
21251;SDS011;10784;50.578;17.878;2022-09-28T08:20:51;2.80;;;1.67;;
21251;SDS011;10784;50.578;17.878;2022-09-28T08:23:46;1.70;;;1.40;;
21251;SDS011;10784;50.578;17.878;2022-09-28T08:26:21;2.17;;;1.48;;
21251;SDS011;10784;50.578;17.878;2022-09-28T08:28:54;1.58;;;1.35;;
21251;SDS011;10784;50.578;17.878;2022-09-28T08:31:56;3.10;;;1.50;;
21251;SDS011;10784;50.578;17.878;2022-09-28T08:34:39;2.03;;;1.45;;
21251;SDS011;10784;50.578;17.878;2022-09-28T08:37:39;3.40;;;1.67;;
21251;SDS011;10784;50.578;17.878;2022-09-28T08:40:30;3.40;;;1.63;;
21251;SDS011;10784;50.578;17.878;2022-09-28T08:43:22;2.60;;;1.70;;
21251;SDS011;10784;50.578;17.878;2022-09-28T08:46:13;2.55;;;1.85;;
21251;SDS011;10784;50.578;17.878;2022-09-28T08:49:27;4.40;;;1.40;;
21251;SDS011;10784;50.578;17.878;2022-09-28T08:52:36;1.27;;;1.10;;
21251;SDS011;10784;50.578;17.878;2022-09-28T08:55:29;1.67;;;1.10;;
21251;SDS011;10784;50.578;17.878;2022-09-28T08:58:15;1.67;;;1.13;;
21251;SDS011;10784;50.578;17.878;2022-09-28T09:00:50;1.77;;;1.30;;
21251;SDS011;10784;50.578;17.878;2022-09-28T09:03:34;1.05;;;0.90;;
21251;SDS011;10784;50.578;17.878;2022-09-28T09:12:34;0.80;;;0.80;;
21251;SDS011;10784;50.578;17.878;2022-09-28T09:15:12;1.73;;;0.75;;
21251;SDS011;10784;50.578;17.878;2022-09-28T09:20:57;1.65;;;0.80;;
21251;SDS011;10784;50.578;17.878;2022-09-28T09:23:36;0.70;;;0.70;;
21251;SDS011;10784;50.578;17.878;2022-09-28T09:37:50;1.75;;;0.77;;
21251;SDS011;10784;50.578;17.878;2022-09-28T09:46:54;1.70;;;0.77;;
21251;SDS011;10784;50.578;17.878;2022-09-28T09:52:27;1.92;;;0.90;;
21251;SDS011;10784;50.578;17.878;2022-09-28T09:55:02;1.05;;;0.88;;
21251;SDS011;10784;50.578;17.878;2022-09-28T09:57:44;1.70;;;0.88;;
21251;SDS011;10784;50.578;17.878;2022-09-28T10:00:34;1.13;;;0.70;;
21251;SDS011;10784;50.578;17.878;2022-09-28T10:03:23;1.60;;;0.90;;
21251;SDS011;10784;50.578;17.878;2022-09-28T10:06:00;0.60;;;0.60;;
21251;SDS011;10784;50.578;17.878;2022-09-28T10:08:34;1.60;;;0.98;;
21251;SDS011;10784;50.578;17.878;2022-09-28T10:11:27;1.30;;;0.80;;
21251;SDS011;10784;50.578;17.878;2022-09-28T10:14:03;1.27;;;0.70;;
21251;SDS011;10784;50.578;17.878;2022-09-28T10:16:47;1.92;;;1.00;;
21251;SDS011;10784;50.578;17.878;2022-09-28T10:19:44;1.75;;;1.00;;
21251;SDS011;10784;50.578;17.878;2022-09-28T10:22:43;1.20;;;0.85;;
21251;SDS011;10784;50.578;17.878;2022-09-28T10:25:20;1.15;;;0.80;;
21251;SDS011;10784;50.578;17.878;2022-09-28T10:27:53;1.13;;;1.00;;
21251;SDS011;10784;50.578;17.878;2022-09-28T10:30:27;1.50;;;0.90;;
21251;SDS011;10784;50.578;17.878;2022-09-28T10:33:00;1.50;;;0.90;;
21251;SDS011;10784;50.578;17.878;2022-09-28T10:35:39;1.02;;;0.60;;
21251;SDS011;10784;50.578;17.878;2022-09-28T10:38:16;1.30;;;0.88;;
21251;SDS011;10784;50.578;17.878;2022-09-28T10:41:08;1.80;;;1.10;;
21251;SDS011;10784;50.578;17.878;2022-09-28T10:43:54;0.90;;;0.80;;
21251;SDS011;10784;50.578;17.878;2022-09-28T10:46:44;1.42;;;0.70;;
21251;SDS011;10784;50.578;17.878;2022-09-28T10:49:26;1.50;;;1.00;;
21251;SDS011;10784;50.578;17.878;2022-09-28T10:52:02;1.25;;;0.85;;
21251;SDS011;10784;50.578;17.878;2022-09-28T10:54:41;1.23;;;0.65;;
21251;SDS011;10784;50.578;17.878;2022-09-28T10:57:34;2.43;;;0.70;;
21251;SDS011;10784;50.578;17.878;2022-09-28T11:00:28;0.77;;;0.57;;
21251;SDS011;10784;50.578;17.878;2022-09-28T11:03:21;0.90;;;0.60;;
21251;SDS011;10784;50.578;17.878;2022-09-28T11:05:58;1.30;;;0.60;;
21251;SDS011;10784;50.578;17.878;2022-09-28T11:08:42;2.58;;;1.08;;
21251;SDS011;10784;50.578;17.878;2022-09-28T11:11:21;1.17;;;0.60;;
21251;SDS011;10784;50.578;17.878;2022-09-28T11:14:03;1.35;;;0.80;;
21251;SDS011;10784;50.578;17.878;2022-09-28T11:16:39;0.80;;;0.60;;
21251;SDS011;10784;50.578;17.878;2022-09-28T11:21:53;1.05;;;0.60;;
21251;SDS011;10784;50.578;17.878;2022-09-28T11:24:33;0.90;;;0.77;;
21251;SDS011;10784;50.578;17.878;2022-09-28T11:27:10;0.98;;;0.80;;
21251;SDS011;10784;50.578;17.878;2022-09-28T11:29:54;1.30;;;0.75;;
21251;SDS011;10784;50.578;17.878;2022-09-28T11:32:41;0.88;;;0.70;;
21251;SDS011;10784;50.578;17.878;2022-09-28T11:35:24;6.10;;;1.10;;
21251;SDS011;10784;50.578;17.878;2022-09-28T11:38:02;0.95;;;0.70;;
21251;SDS011;10784;50.578;17.878;2022-09-28T11:41:19;0.63;;;0.60;;
21251;SDS011;10784;50.578;17.878;2022-09-28T11:51:49;0.52;;;0.52;;
21251;SDS011;10784;50.578;17.878;2022-09-28T11:54:26;0.60;;;0.40;;
21251;SDS011;10784;50.578;17.878;2022-09-28T11:57:01;1.30;;;0.57;;
21251;SDS011;10784;50.578;17.878;2022-09-28T11:59:37;2.78;;;1.02;;
21251;SDS011;10784;50.578;17.878;2022-09-28T12:04:55;2.28;;;0.70;;
21251;SDS011;10784;50.578;17.878;2022-09-28T12:07:31;1.90;;;0.73;;
21251;SDS011;10784;50.578;17.878;2022-09-28T12:10:12;0.85;;;0.60;;
21251;SDS011;10784;50.578;17.878;2022-09-28T12:12:58;0.50;;;0.43;;
21251;SDS011;10784;50.578;17.878;2022-09-28T12:15:56;0.52;;;0.47;;
21251;SDS011;10784;50.578;17.878;2022-09-28T12:18:51;1.30;;;0.50;;
21251;SDS011;10784;50.578;17.878;2022-09-28T12:22:08;1.05;;;0.55;;
21251;SDS011;10784;50.578;17.878;2022-09-28T12:24:24;1.30;;;0.70;;
21251;SDS011;10784;50.578;17.878;2022-09-28T12:29:42;1.17;;;0.68;;
21251;SDS011;10784;50.578;17.878;2022-09-28T12:33:05;0.90;;;0.60;;
21251;SDS011;10784;50.578;17.878;2022-09-28T12:35:13;3.37;;;0.93;;
21251;SDS011;10784;50.578;17.878;2022-09-28T12:37:55;1.60;;;0.80;;
21251;SDS011;10784;50.578;17.878;2022-09-28T12:40:36;1.20;;;0.98;;
21251;SDS011;10784;50.578;17.878;2022-09-28T12:51:52;2.00;;;0.70;;
21251;SDS011;10784;50.578;17.878;2022-09-28T12:57:44;2.40;;;0.88;;
21251;SDS011;10784;50.578;17.878;2022-09-28T13:00:19;1.40;;;0.90;;
21251;SDS011;10784;50.578;17.878;2022-09-28T13:06:25;4.82;;;0.98;;
21251;SDS011;10784;50.578;17.878;2022-09-28T13:11:39;3.87;;;1.27;;
21251;SDS011;10784;50.578;17.878;2022-09-28T13:17:16;3.38;;;1.10;;
21251;SDS011;10784;50.578;17.878;2022-09-28T13:19:58;4.78;;;2.38;;
21251;SDS011;10784;50.578;17.878;2022-09-28T13:22:38;4.65;;;2.20;;
21251;SDS011;10784;50.578;17.878;2022-09-28T13:25:16;6.85;;;2.88;;
21251;SDS011;10784;50.578;17.878;2022-09-28T13:27:52;3.40;;;1.83;;
21251;SDS011;10784;50.578;17.878;2022-09-28T13:30:26;3.97;;;1.52;;
21251;SDS011;10784;50.578;17.878;2022-09-28T13:33:00;2.05;;;1.30;;
21251;SDS011;10784;50.578;17.878;2022-09-28T13:35:35;3.45;;;1.23;;
21251;SDS011;10784;50.578;17.878;2022-09-28T13:41:08;1.50;;;0.90;;
21251;SDS011;10784;50.578;17.878;2022-09-28T13:43:51;3.53;;;1.20;;
21251;SDS011;10784;50.578;17.878;2022-09-28T14:00:23;1.40;;;1.30;;
21251;SDS011;10784;50.578;17.878;2022-09-28T14:03:02;1.08;;;0.75;;
21251;SDS011;10784;50.578;17.878;2022-09-28T14:16:38;2.00;;;0.80;;
21251;SDS011;10784;50.578;17.878;2022-09-28T14:19:28;1.60;;;0.93;;
21251;SDS011;10784;50.578;17.878;2022-09-28T14:22:05;2.17;;;1.30;;
21251;SDS011;10784;50.578;17.878;2022-09-28T14:25:04;3.03;;;1.90;;
21251;SDS011;10784;50.578;17.878;2022-09-28T14:30:23;7.82;;;1.70;;
21251;SDS011;10784;50.578;17.878;2022-09-28T14:32:57;3.60;;;2.05;;
21251;SDS011;10784;50.578;17.878;2022-09-28T14:35:38;5.10;;;2.28;;
21251;SDS011;10784;50.578;17.878;2022-09-28T14:48:52;3.78;;;1.80;;
21251;SDS011;10784;50.578;17.878;2022-09-28T14:59:28;9.35;;;4.47;;
21251;SDS011;10784;50.578;17.878;2022-09-28T15:07:29;4.10;;;1.55;;
21251;SDS011;10784;50.578;17.878;2022-09-28T15:10:25;2.30;;;1.48;;
21251;SDS011;10784;50.578;17.878;2022-09-28T15:13:14;2.65;;;1.90;;
21251;SDS011;10784;50.578;17.878;2022-09-28T15:15:49;3.22;;;1.60;;
21251;SDS011;10784;50.578;17.878;2022-09-28T15:18:35;4.18;;;2.13;;
21251;SDS011;10784;50.578;17.878;2022-09-28T15:21:15;2.20;;;1.50;;
21251;SDS011;10784;50.578;17.878;2022-09-28T15:23:48;3.20;;;1.50;;
21251;SDS011;10784;50.578;17.878;2022-09-28T15:26:23;5.53;;;3.40;;
21251;SDS011;10784;50.578;17.878;2022-09-28T15:28:59;5.10;;;2.63;;
21251;SDS011;10784;50.578;17.878;2022-09-28T15:31:34;5.05;;;2.33;;
21251;SDS011;10784;50.578;17.878;2022-09-28T15:34:10;22.00;;;7.63;;
21251;SDS011;10784;50.578;17.878;2022-09-28T15:37:16;19.08;;;7.68;;
21251;SDS011;10784;50.578;17.878;2022-09-28T15:39:51;17.15;;;7.68;;
21251;SDS011;10784;50.578;17.878;2022-09-28T15:42:25;12.70;;;4.88;;
21251;SDS011;10784;50.578;17.878;2022-09-28T15:47:32;11.43;;;6.05;;
21251;SDS011;10784;50.578;17.878;2022-09-28T15:50:27;11.23;;;5.35;;
21251;SDS011;10784;50.578;17.878;2022-09-28T15:53:00;10.07;;;4.72;;
21251;SDS011;10784;50.578;17.878;2022-09-28T15:55:34;7.50;;;4.20;;
21251;SDS011;10784;50.578;17.878;2022-09-28T15:58:18;8.15;;;3.95;;
21251;SDS011;10784;50.578;17.878;2022-09-28T16:01:16;11.95;;;6.45;;
21251;SDS011;10784;50.578;17.878;2022-09-28T16:03:44;13.10;;;7.00;;
21251;SDS011;10784;50.578;17.878;2022-09-28T16:06:17;11.10;;;6.30;;
21251;SDS011;10784;50.578;17.878;2022-09-28T16:08:50;9.32;;;4.68;;
21251;SDS011;10784;50.578;17.878;2022-09-28T16:11:24;7.75;;;3.33;;
21251;SDS011;10784;50.578;17.878;2022-09-28T16:14:06;4.40;;;2.33;;
21251;SDS011;10784;50.578;17.878;2022-09-28T16:16:50;3.47;;;1.33;;
21251;SDS011;10784;50.578;17.878;2022-09-28T16:19:35;6.25;;;2.00;;
21251;SDS011;10784;50.578;17.878;2022-09-28T16:22:11;3.17;;;1.75;;
21251;SDS011;10784;50.578;17.878;2022-09-28T16:24:53;4.20;;;2.20;;
21251;SDS011;10784;50.578;17.878;2022-09-28T16:27:31;11.95;;;5.60;;
21251;SDS011;10784;50.578;17.878;2022-09-28T16:30:27;21.00;;;9.15;;
21251;SDS011;10784;50.578;17.878;2022-09-28T16:33:02;20.60;;;8.50;;
21251;SDS011;10784;50.578;17.878;2022-09-28T16:38:13;21.67;;;9.27;;
21251;SDS011;10784;50.578;17.878;2022-09-28T16:40:48;17.10;;;6.88;;
21251;SDS011;10784;50.578;17.878;2022-09-28T16:43:23;10.43;;;4.45;;
21251;SDS011;10784;50.578;17.878;2022-09-28T16:45:58;9.05;;;3.58;;
21251;SDS011;10784;50.578;17.878;2022-09-28T16:48:33;8.10;;;4.38;;
21251;SDS011;10784;50.578;17.878;2022-09-28T16:51:11;8.40;;;4.82;;
21251;SDS011;10784;50.578;17.878;2022-09-28T16:53:44;7.63;;;4.10;;
21251;SDS011;10784;50.578;17.878;2022-09-28T16:56:35;9.25;;;3.85;;
21251;SDS011;10784;50.578;17.878;2022-09-28T16:59:09;8.60;;;3.75;;
21251;SDS011;10784;50.578;17.878;2022-09-28T17:01:45;7.43;;;3.40;;
21251;SDS011;10784;50.578;17.878;2022-09-28T17:04:18;5.80;;;2.90;;
21251;SDS011;10784;50.578;17.878;2022-09-28T17:06:51;11.80;;;4.43;;
21251;SDS011;10784;50.578;17.878;2022-09-28T17:09:26;8.52;;;4.70;;
21251;SDS011;10784;50.578;17.878;2022-09-28T17:11:58;12.23;;;5.32;;
21251;SDS011;10784;50.578;17.878;2022-09-28T17:14:31;31.38;;;15.65;;
21251;SDS011;10784;50.578;17.878;2022-09-28T17:17:04;38.90;;;15.35;;
21251;SDS011;10784;50.578;17.878;2022-09-28T17:19:45;34.92;;;17.17;;
21251;SDS011;10784;50.578;17.878;2022-09-28T17:22:17;30.70;;;11.53;;
21251;SDS011;10784;50.578;17.878;2022-09-28T17:24:50;38.50;;;14.20;;
21251;SDS011;10784;50.578;17.878;2022-09-28T17:27:23;102.50;;;28.48;;
21251;SDS011;10784;50.578;17.878;2022-09-28T17:29:56;76.40;;;24.90;;
21251;SDS011;10784;50.578;17.878;2022-09-28T17:32:29;83.15;;;25.58;;
21251;SDS011;10784;50.578;17.878;2022-09-28T17:35:04;48.67;;;16.90;;
21251;SDS011;10784;50.578;17.878;2022-09-28T17:37:56;51.65;;;17.83;;
21251;SDS011;10784;50.578;17.878;2022-09-28T17:40:30;61.90;;;22.55;;
21251;SDS011;10784;50.578;17.878;2022-09-28T17:43:03;56.42;;;19.67;;
21251;SDS011;10784;50.578;17.878;2022-09-28T17:45:37;46.35;;;16.75;;
21251;SDS011;10784;50.578;17.878;2022-09-28T17:48:15;39.63;;;14.73;;
21251;SDS011;10784;50.578;17.878;2022-09-28T17:50:48;31.05;;;12.10;;
21251;SDS011;10784;50.578;17.878;2022-09-28T17:53:23;19.27;;;9.23;;
21251;SDS011;10784;50.578;17.878;2022-09-28T17:55:57;15.57;;;8.65;;
21251;SDS011;10784;50.578;17.878;2022-09-28T17:58:30;18.33;;;7.72;;
21251;SDS011;10784;50.578;17.878;2022-09-28T18:01:03;16.02;;;7.57;;
21251;SDS011;10784;50.578;17.878;2022-09-28T18:03:36;15.75;;;8.23;;
21251;SDS011;10784;50.578;17.878;2022-09-28T18:06:11;16.70;;;7.40;;
21251;SDS011;10784;50.578;17.878;2022-09-28T18:08:45;17.83;;;8.10;;
21251;SDS011;10784;50.578;17.878;2022-09-28T18:11:18;15.30;;;6.87;;
21251;SDS011;10784;50.578;17.878;2022-09-28T18:13:52;12.97;;;6.27;;
21251;SDS011;10784;50.578;17.878;2022-09-28T18:16:25;10.63;;;5.43;;
21251;SDS011;10784;50.578;17.878;2022-09-28T18:19:00;13.90;;;6.72;;
21251;SDS011;10784;50.578;17.878;2022-09-28T18:21:33;12.52;;;6.93;;
21251;SDS011;10784;50.578;17.878;2022-09-28T18:24:07;16.00;;;8.35;;
21251;SDS011;10784;50.578;17.878;2022-09-28T18:26:41;15.65;;;8.52;;
21251;SDS011;10784;50.578;17.878;2022-09-28T18:29:15;17.60;;;8.25;;
21251;SDS011;10784;50.578;17.878;2022-09-28T18:31:48;16.38;;;8.30;;
21251;SDS011;10784;50.578;17.878;2022-09-28T18:34:21;24.05;;;10.50;;